Time;durP1;ratioP1;P1;durP2;ratioP2;P2;SDS_P1;SDS_P2;PMS_P1;PMS_P2;Temp;Humidity;BMP_temperature;BMP_pressure;BME280_temperature;BME280_humidity;BME280_pressure;Samples;Min_cycle;Max_cycle;Signal;HPM_P1;HPM_P2
2022/12/06 00:00:09;;;;;;;9.43;4.35;;;4.90;92.50;;;;;;5045085;28;20036;-45
2022/12/06 00:02:35;;;;;;;9.02;4.13;;;5.00;92.60;;;;;;5032277;28;20037;-44
2022/12/06 00:05:02;;;;;;;8.10;3.58;;;5.00;92.70;;;;;;5033138;28;20029;-47
2022/12/06 00:07:31;;;;;;;7.22;4.25;;;4.90;92.60;;;;;;5033225;28;20034;-48
2022/12/06 00:09:58;;;;;;;8.23;3.65;;;4.90;92.70;;;;;;5043418;28;20025;-45
2022/12/06 00:12:23;;;;;;;11.38;4.47;;;4.90;92.70;;;;;;5053846;28;20112;-45
2022/12/06 00:14:49;;;;;;;9.65;3.78;;;5.00;92.70;;;;;;5041390;28;20124;-44
2022/12/06 00:17:20;;;;;;;8.32;4.07;;;4.90;92.70;;;;;;5035974;28;20025;-45
2022/12/06 00:19:47;;;;;;;11.13;4.20;;;4.90;92.70;;;;;;5020056;28;20049;-44
2022/12/06 00:22:14;;;;;;;10.98;4.10;;;4.90;92.80;;;;;;5050825;28;20458;-47
2022/12/06 00:24:41;;;;;;;9.75;4.30;;;4.90;92.80;;;;;;5039096;28;20033;-45
2022/12/06 00:27:07;;;;;;;8.00;4.47;;;4.90;92.80;;;;;;5057052;28;20051;-46
2022/12/06 00:29:34;;;;;;;10.65;4.53;;;4.90;92.80;;;;;;5039742;28;20029;-45
2022/12/06 00:32:00;;;;;;;8.60;5.35;;;4.90;92.70;;;;;;5039273;28;20511;-48
2022/12/06 00:34:26;;;;;;;7.75;4.03;;;4.90;92.70;;;;;;5034570;28;20034;-45
2022/12/06 00:36:53;;;;;;;8.48;4.22;;;4.90;92.80;;;;;;5036792;28;20035;-50
2022/12/06 00:39:22;;;;;;;9.07;4.35;;;4.90;92.80;;;;;;5041004;28;20442;-44
2022/12/06 00:41:49;;;;;;;6.72;3.58;;;4.90;92.70;;;;;;5056457;28;20037;-45
2022/12/06 00:44:15;;;;;;;6.07;3.83;;;4.90;92.70;;;;;;5053111;28;20465;-48
2022/12/06 00:46:42;;;;;;;7.00;4.35;;;4.90;92.70;;;;;;5037340;28;20029;-48
2022/12/06 00:49:09;;;;;;;10.35;4.50;;;4.90;92.70;;;;;;5056651;28;20025;-46
2022/12/06 00:51:37;;;;;;;10.80;4.53;;;4.90;92.70;;;;;;5056595;28;20100;-44
2022/12/06 00:54:03;;;;;;;7.32;4.82;;;4.90;92.70;;;;;;5036705;28;20025;-45
2022/12/06 00:56:31;;;;;;;6.65;4.10;;;4.90;92.70;;;;;;5036328;28;20443;-46
2022/12/06 00:58:57;;;;;;;16.75;4.47;;;4.90;92.70;;;;;;5056150;28;20048;-46
2022/12/06 01:01:41;;;;;;;9.60;4.32;;;4.80;92.60;;;;;;5055436;28;20033;-47
2022/12/06 01:04:08;;;;;;;7.90;3.72;;;4.80;92.70;;;;;;5036050;28;20120;-47
2022/12/06 01:06:35;;;;;;;10.07;4.57;;;4.80;92.70;;;;;;5036018;28;20022;-47
2022/12/06 01:09:08;;;;;;;7.38;4.00;;;4.90;92.70;;;;;;5041102;28;20025;-47
2022/12/06 01:11:34;;;;;;;8.27;3.60;;;4.90;92.70;;;;;;5045155;28;20035;-48
2022/12/06 01:13:59;;;;;;;8.43;3.70;;;4.90;92.70;;;;;;5035469;28;20104;-44
2022/12/06 01:16:29;;;;;;;7.45;3.08;;;4.90;92.60;;;;;;5052289;28;20032;-46
2022/12/06 01:18:59;;;;;;;6.03;3.53;;;4.90;92.70;;;;;;5037335;28;20025;-47
2022/12/06 01:21:27;;;;;;;12.25;4.22;;;4.90;92.70;;;;;;5035882;28;20029;-46
2022/12/06 01:23:55;;;;;;;8.00;3.28;;;4.90;92.70;;;;;;5034822;28;20033;-45
2022/12/06 01:26:28;;;;;;;7.78;3.58;;;4.90;92.60;;;;;;5018196;28;20030;-46
2022/12/06 01:28:57;;;;;;;8.18;3.95;;;4.90;92.60;;;;;;5036773;28;20052;-44
2022/12/06 01:31:26;;;;;;;7.77;4.33;;;4.90;92.70;;;;;;5055544;28;20021;-44
2022/12/06 01:33:52;;;;;;;8.02;3.60;;;4.90;92.60;;;;;;5055940;28;20025;-47
2022/12/06 01:36:23;;;;;;;10.07;5.28;;;4.90;92.60;;;;;;5055464;28;20104;-44
2022/12/06 01:38:56;;;;;;;6.82;4.07;;;4.80;92.60;;;;;;5050659;28;20454;-46
2022/12/06 01:41:25;;;;;;;6.85;3.90;;;4.80;92.60;;;;;;5038796;28;20443;-46
2022/12/06 01:43:53;;;;;;;7.15;3.13;;;4.80;92.60;;;;;;5035954;28;20040;-48
2022/12/06 01:46:37;;;;;;;6.43;3.42;;;4.80;92.40;;;;;;5051364;28;20055;-47
2022/12/06 01:49:12;;;;;;;9.23;3.70;;;4.80;92.40;;;;;;5035476;28;20074;-44
2022/12/06 01:51:43;;;;;;;5.78;2.90;;;4.80;92.30;;;;;;5035326;28;20405;-46
2022/12/06 01:54:13;;;;;;;7.47;3.40;;;4.70;92.30;;;;;;5048587;28;20450;-44
2022/12/06 01:56:41;;;;;;;9.35;4.05;;;4.80;92.30;;;;;;5022950;28;20370;-44
2022/12/06 01:59:09;;;;;;;10.88;4.00;;;4.80;92.30;;;;;;5015743;28;20117;-47
2022/12/06 02:01:36;;;;;;;11.23;4.30;;;4.80;92.40;;;;;;5018153;28;20109;-43
2022/12/06 02:04:03;;;;;;;8.80;3.55;;;4.80;92.30;;;;;;5015152;28;20073;-44
2022/12/06 02:06:31;;;;;;;7.40;3.42;;;4.80;92.20;;;;;;5031195;28;20466;-44
2022/12/06 02:09:01;;;;;;;8.50;3.90;;;4.70;92.10;;;;;;5021416;28;20030;-44
2022/12/06 02:11:29;;;;;;;8.10;4.75;;;4.80;92.20;;;;;;5015376;28;20355;-43
2022/12/06 02:13:56;;;;;;;7.57;3.97;;;4.80;92.20;;;;;;5015147;28;20410;-43
2022/12/06 02:16:44;;;;;;;5.50;4.00;;;4.80;92.20;;;;;;4998689;28;20041;-43
2022/12/06 02:19:40;;;;;;;8.73;3.67;;;4.70;92.20;;;;;;5014798;28;20033;-47
2022/12/06 02:22:45;;;;;;;7.68;4.45;;;4.70;92.20;;;;;;5015108;28;20038;-45
2022/12/06 02:25:38;;;;;;;10.95;4.13;;;4.80;92.20;;;;;;5018223;28;20065;-45
2022/12/06 02:28:31;;;;;;;6.88;3.85;;;4.70;92.20;;;;;;5015044;28;20026;-44
2022/12/06 02:31:06;;;;;;;7.10;4.47;;;4.70;92.30;;;;;;5018941;28;20436;-45
2022/12/06 02:33:59;;;;;;;10.23;6.75;;;4.70;92.30;;;;;;5014773;28;20037;-44
2022/12/06 02:36:24;;;;;;;7.78;4.70;;;4.70;92.30;;;;;;5006823;28;20041;-44
2022/12/06 02:39:17;;;;;;;7.35;4.07;;;4.70;92.40;;;;;;5023624;28;20030;-44
2022/12/06 02:42:03;;;;;;;9.45;4.22;;;4.70;92.30;;;;;;5014721;28;20061;-46
2022/12/06 02:44:45;;;;;;;8.80;3.92;;;4.70;92.20;;;;;;5014705;28;20026;-47
2022/12/06 02:47:15;;;;;;;9.00;3.58;;;4.60;92.20;;;;;;5023998;28;20506;-45
2022/12/06 02:49:48;;;;;;;9.00;3.85;;;4.60;92.20;;;;;;5014607;28;20034;-43
2022/12/06 02:52:18;;;;;;;8.25;4.15;;;4.60;92.20;;;;;;5022770;28;20025;-47
2022/12/06 02:54:47;;;;;;;11.05;4.32;;;4.60;92.20;;;;;;5022463;28;20022;-45
2022/12/06 02:57:14;;;;;;;8.10;3.85;;;4.60;92.20;;;;;;5013000;28;20042;-43
2022/12/06 02:59:51;;;;;;;7.65;3.20;;;4.60;92.20;;;;;;5013959;28;20038;-43
2022/12/06 03:02:22;;;;;;;7.45;4.43;;;4.60;92.10;;;;;;5017166;28;20061;-45
2022/12/06 03:05:17;;;;;;;7.55;4.10;;;4.60;92.10;;;;;;5033983;28;20030;-43
2022/12/06 03:07:45;;;;;;;10.75;4.85;;;4.60;92.10;;;;;;5029189;28;20046;-45
2022/12/06 03:10:37;;;;;;;10.23;3.40;;;4.60;92.10;;;;;;4996957;28;20030;-43
2022/12/06 03:13:40;;;;;;;9.75;4.72;;;4.60;92.20;;;;;;5013924;28;20059;-43
2022/12/06 03:16:23;;;;;;;10.38;4.20;;;4.60;92.20;;;;;;5015124;28;20052;-45
2022/12/06 03:19:14;;;;;;;8.73;4.78;;;4.60;92.30;;;;;;5033881;28;20078;-44
2022/12/06 03:21:52;;;;;;;10.35;4.03;;;4.60;92.20;;;;;;5015838;28;20044;-45
2022/12/06 03:24:21;;;;;;;6.72;4.00;;;4.60;92.10;;;;;;5032166;28;20118;-44
2022/12/06 03:26:50;;;;;;;9.13;4.50;;;4.60;92.10;;;;;;5033094;28;20031;-45
2022/12/06 03:29:19;;;;;;;7.90;4.43;;;4.60;92.00;;;;;;5015710;28;20670;-46
2022/12/06 03:31:48;;;;;;;15.00;5.65;;;4.50;92.00;;;;;;5028069;28;20052;-45
2022/12/06 03:34:21;;;;;;;7.80;4.65;;;4.50;92.00;;;;;;5012765;28;20046;-44
2022/12/06 03:36:52;;;;;;;10.73;4.53;;;4.60;92.00;;;;;;5013724;28;20105;-45
2022/12/06 03:39:55;;;;;;;8.45;4.65;;;4.60;92.00;;;;;;5013620;28;20034;-48
2022/12/06 03:42:25;;;;;;;11.77;5.00;;;4.60;92.00;;;;;;5019839;28;20037;-44
2022/12/06 03:44:50;;;;;;;9.45;4.78;;;4.50;92.00;;;;;;5013654;28;20040;-45
2022/12/06 03:47:27;;;;;;;10.18;4.95;;;4.50;92.10;;;;;;5031732;28;20033;-45
2022/12/06 03:49:58;;;;;;;7.43;4.90;;;4.50;92.00;;;;;;5033162;28;20013;-43
2022/12/06 03:52:28;;;;;;;10.30;5.22;;;4.50;92.00;;;;;;5017446;28;20021;-44
2022/12/06 03:54:55;;;;;;;11.60;5.07;;;4.50;92.10;;;;;;5032729;28;20026;-43
2022/12/06 03:57:21;;;;;;;11.27;4.97;;;4.50;92.20;;;;;;5048899;28;20060;-46
2022/12/06 03:59:48;;;;;;;11.18;4.70;;;4.50;92.20;;;;;;5034945;28;20025;-46
2022/12/06 04:02:14;;;;;;;16.27;5.60;;;4.40;92.20;;;;;;5051403;28;20138;-44
2022/12/06 04:04:40;;;;;;;9.32;4.15;;;4.40;92.10;;;;;;5035288;28;20111;-45
2022/12/06 04:07:08;;;;;;;9.82;3.88;;;4.40;92.10;;;;;;5035150;28;20128;-43
2022/12/06 04:09:51;;;;;;;7.55;3.75;;;4.30;91.90;;;;;;5050357;28;20061;-43
2022/12/06 04:15:04;;;;;;;7.45;3.55;;;4.20;91.70;;;;;;5032815;28;20041;-46
2022/12/06 04:20:16;;;;;;;7.60;3.65;;;4.20;91.60;;;;;;5032809;28;20458;-43
2022/12/06 04:25:35;;;;;;;5.85;3.05;;;4.10;91.50;;;;;;5040492;28;20105;-46
2022/12/06 04:39:03;;;;;;;7.45;2.65;;;3.90;91.00;;;;;;5032855;28;20049;-43
2022/12/06 04:44:18;;;;;;;4.22;2.53;;;3.70;90.60;;;;;;5032419;28;20029;-48
2022/12/06 04:46:50;;;;;;;4.75;2.67;;;3.70;90.50;;;;;;5045465;28;20065;-46
2022/12/06 04:49:16;;;;;;;8.27;2.97;;;3.70;90.60;;;;;;5052431;28;20040;-43
2022/12/06 04:51:43;;;;;;;6.63;2.67;;;3.60;90.70;;;;;;5052600;28;20028;-43
2022/12/06 04:54:10;;;;;;;6.13;2.90;;;3.70;90.80;;;;;;5037767;28;20037;-43
2022/12/06 04:56:37;;;;;;;6.72;3.33;;;3.60;90.80;;;;;;5022296;28;20058;-44
2022/12/06 04:59:06;;;;;;;7.55;3.97;;;3.60;90.90;;;;;;5014047;28;20041;-43
2022/12/06 05:01:33;;;;;;;7.28;4.10;;;3.60;91.10;;;;;;5019778;28;20030;-43
2022/12/06 05:04:01;;;;;;;9.02;3.30;;;3.70;91.30;;;;;;5035182;28;20037;-44
2022/12/06 05:06:31;;;;;;;7.45;3.67;;;3.70;91.40;;;;;;5030642;28;20025;-46
2022/12/06 05:08:57;;;;;;;;;;;3.70;91.50;;;;;;5036304;28;20104;-44
2022/12/06 05:11:24;;;;;;;6.13;2.88;;;3.80;91.50;;;;;;5034936;28;19913;-44
2022/12/06 05:13:50;;;;;;;5.95;3.08;;;3.80;91.50;;;;;;5016161;28;20034;-45
2022/12/06 05:16:17;;;;;;;5.53;2.58;;;3.90;91.50;;;;;;5014360;28;20047;-43
2022/12/06 05:18:46;;;;;;;7.97;3.42;;;3.90;91.50;;;;;;5019613;28;20108;-45
2022/12/06 05:21:30;;;;;;;7.05;3.75;;;3.90;91.50;;;;;;5016111;28;20049;-43
2022/12/06 05:23:57;;;;;;;8.00;3.63;;;3.90;91.50;;;;;;5016054;28;20044;-43
2022/12/06 05:26:26;;;;;;;6.60;2.38;;;4.00;91.60;;;;;;5015779;28;20164;-46
2022/12/06 05:28:54;;;;;;;5.07;2.80;;;4.00;91.60;;;;;;5015430;28;20025;-47
2022/12/06 05:31:22;;;;;;;6.00;3.72;;;4.00;91.50;;;;;;5029366;28;20458;-44
2022/12/06 05:33:48;;;;;;;6.15;3.35;;;4.00;91.40;;;;;;5017957;28;20041;-49
2022/12/06 05:36:22;;;;;;;7.75;3.00;;;4.00;91.40;;;;;;5033313;28;20029;-46
2022/12/06 05:38:50;;;;;;;7.45;2.95;;;4.00;91.30;;;;;;5015565;28;20053;-42
2022/12/06 05:41:22;;;;;;;4.43;2.55;;;4.10;91.30;;;;;;5029315;28;20029;-43
2022/12/06 05:43:48;;;;;;;9.07;3.25;;;4.00;91.10;;;;;;5035491;28;20043;-43
2022/12/06 05:46:16;;;;;;;5.35;3.50;;;4.00;91.10;;;;;;5027245;28;20022;-48
2022/12/06 05:48:42;;;;;;;6.43;3.35;;;4.00;91.00;;;;;;5035386;28;20029;-45
2022/12/06 05:51:09;;;;;;;6.88;3.90;;;4.00;91.10;;;;;;5035399;28;20112;-44
2022/12/06 05:53:37;;;;;;;6.20;3.13;;;4.10;91.20;;;;;;5033603;28;20029;-45
2022/12/06 05:56:06;;;;;;;4.60;2.70;;;4.10;91.20;;;;;;5028116;28;20132;-44
2022/12/06 05:58:32;;;;;;;4.72;2.05;;;4.10;91.20;;;;;;5037421;28;20108;-45
2022/12/06 06:00:59;;;;;;;5.40;2.58;;;4.10;91.10;;;;;;5053085;28;20025;-49
2022/12/06 06:03:28;;;;;;;7.05;2.90;;;4.10;91.00;;;;;;5055299;28;20426;-43
2022/12/06 06:05:57;;;;;;;7.05;2.42;;;4.10;91.00;;;;;;5043747;28;20057;-44
2022/12/06 06:08:25;;;;;;;6.13;3.90;;;4.10;91.10;;;;;;5055413;28;20029;-48
2022/12/06 06:10:52;;;;;;;6.30;4.18;;;4.10;91.10;;;;;;5035619;28;20104;-43
2022/12/06 06:13:19;;;;;;;5.45;2.42;;;4.20;91.20;;;;;;5035194;28;20021;-43
2022/12/06 06:15:48;;;;;;;7.13;2.75;;;4.20;91.40;;;;;;5041548;28;20116;-43
2022/12/06 06:18:15;;;;;;;3.67;2.38;;;4.20;91.50;;;;;;5039519;28;20029;-43
2022/12/06 06:20:50;;;;;;;5.07;2.53;;;4.10;91.70;;;;;;5044344;28;20357;-43
2022/12/06 06:23:20;;;;;;;6.68;3.20;;;4.20;91.80;;;;;;5036875;28;20041;-45
2022/12/06 06:25:49;;;;;;;5.72;3.03;;;4.20;92.00;;;;;;5037995;28;20416;-44
2022/12/06 06:28:16;;;;;;;6.05;2.70;;;4.20;92.10;;;;;;5034730;28;20021;-44
2022/12/06 06:30:44;;;;;;;4.40;2.50;;;4.20;92.30;;;;;;5044810;28;20029;-43
2022/12/06 06:33:11;;;;;;;6.43;3.40;;;4.20;92.40;;;;;;5049440;28;20447;-44
2022/12/06 06:35:38;;;;;;;5.07;3.00;;;4.20;92.50;;;;;;5047715;28;20036;-44
2022/12/06 06:38:05;;;;;;;5.55;3.10;;;4.20;92.50;;;;;;5044103;28;20045;-45
2022/12/06 06:40:33;;;;;;;8.38;3.28;;;4.20;92.60;;;;;;5033419;28;20029;-46
2022/12/06 06:43:18;;;;;;;5.35;2.92;;;4.20;92.60;;;;;;5034583;28;20533;-47
2022/12/06 06:45:55;;;;;;;7.78;3.15;;;4.20;92.70;;;;;;5050088;28;20160;-44
2022/12/06 06:48:23;;;;;;;4.70;2.30;;;4.20;92.70;;;;;;5040406;28;20222;-43
2022/12/06 06:50:49;;;;;;;3.88;2.25;;;4.20;92.80;;;;;;5034227;28;20022;-45
2022/12/06 06:53:18;;;;;;;4.03;2.35;;;4.20;92.90;;;;;;5034478;28;20033;-43
2022/12/06 06:55:46;;;;;;;4.95;2.70;;;4.20;92.90;;;;;;5046373;28;20068;-43
2022/12/06 06:58:13;;;;;;;4.93;2.42;;;4.20;92.90;;;;;;5036442;28;20025;-48
2022/12/06 07:00:41;;;;;;;3.47;1.45;;;4.20;92.90;;;;;;5051838;28;20021;-44
2022/12/06 07:03:14;;;;;;;4.95;2.08;;;4.10;93.00;;;;;;5052724;28;20401;-48
2022/12/06 07:05:42;;;;;;;3.65;2.00;;;4.20;93.00;;;;;;5053667;28;20017;-49
2022/12/06 07:08:09;;;;;;;3.63;2.10;;;4.10;93.10;;;;;;5036400;28;20059;-46
2022/12/06 07:10:36;;;;;;;4.25;2.53;;;4.10;93.10;;;;;;5035459;28;20057;-46
2022/12/06 07:13:02;;;;;;;6.10;2.88;;;4.20;93.20;;;;;;5048638;28;20044;-46
2022/12/06 07:15:29;;;;;;;4.47;2.25;;;4.20;93.20;;;;;;5051822;28;20037;-49
2022/12/06 07:17:57;;;;;;;5.65;2.53;;;4.20;93.20;;;;;;5033185;28;20037;-54
2022/12/06 07:20:26;;;;;;;7.30;2.72;;;4.20;93.20;;;;;;5033614;28;20601;-56
2022/12/06 07:22:51;;;;;;;3.80;2.10;;;4.20;93.20;;;;;;5033811;28;20045;-57
2022/12/06 07:25:18;;;;;;;4.72;1.80;;;4.20;93.10;;;;;;5051965;28;20047;-55
2022/12/06 07:27:44;;;;;;;5.70;2.78;;;4.10;92.90;;;;;;5049165;28;20040;-54
2022/12/06 07:30:10;;;;;;;5.65;2.30;;;4.00;92.90;;;;;;5034410;28;20064;-53
2022/12/06 07:32:37;;;;;;;48.78;31.98;;;4.00;92.80;;;;;;5035265;28;20396;-54
2022/12/06 07:35:08;;;;;;;17.42;8.73;;;4.00;92.90;;;;;;5034097;28;20057;-53
2022/12/06 07:37:35;;;;;;;66.50;44.08;;;3.90;92.80;;;;;;5039764;28;20033;-52
2022/12/06 07:40:02;;;;;;;19.38;13.70;;;3.90;92.80;;;;;;5053015;28;20036;-52
2022/12/06 07:45:15;;;;;;;5.25;3.03;;;4.00;92.80;;;;;;5051331;28;20095;-52
2022/12/06 07:47:45;;;;;;;3.45;2.20;;;4.00;92.80;;;;;;5041598;28;20033;-49
2022/12/06 07:50:15;;;;;;;5.53;1.90;;;4.00;92.80;;;;;;5033374;28;20347;-54
2022/12/06 07:52:43;;;;;;;4.50;2.10;;;4.00;92.80;;;;;;5032995;28;20036;-52
2022/12/06 07:55:11;;;;;;;6.70;1.48;;;4.00;92.70;;;;;;5050270;28;20021;-54
2022/12/06 07:57:40;;;;;;;3.30;2.03;;;4.00;92.70;;;;;;5043855;28;20348;-52
2022/12/06 08:00:09;;;;;;;2.63;1.73;;;4.10;92.70;;;;;;5032986;28;20037;-51
2022/12/06 08:02:39;;;;;;;3.40;1.95;;;4.10;92.70;;;;;;5052511;28;20029;-51
2022/12/06 08:05:06;;;;;;;4.85;1.73;;;4.10;92.70;;;;;;5033728;28;20025;-52
2022/12/06 08:07:33;;;;;;;4.32;2.17;;;4.10;92.60;;;;;;5052984;28;20029;-53
2022/12/06 08:09:59;;;;;;;3.83;2.17;;;4.10;92.60;;;;;;5053048;28;20039;-53
2022/12/06 08:12:30;;;;;;;4.13;1.60;;;4.10;92.50;;;;;;5042448;28;20025;-49
2022/12/06 08:14:57;;;;;;;3.53;2.03;;;4.10;92.40;;;;;;5053224;28;20017;-53
2022/12/06 08:17:24;;;;;;;7.00;1.98;;;4.10;92.40;;;;;;5049857;28;20442;-50
2022/12/06 08:19:51;;;;;;;6.68;2.08;;;4.10;92.20;;;;;;5051252;28;20033;-55
2022/12/06 08:22:18;;;;;;;5.68;2.30;;;4.10;92.20;;;;;;5052716;28;20029;-55
2022/12/06 08:24:45;;;;;;;5.18;1.50;;;4.10;92.30;;;;;;5051449;28;20029;-55
2022/12/06 08:27:10;;;;;;;3.60;1.35;;;4.10;92.30;;;;;;5048920;28;20025;-52
2022/12/06 08:29:38;;;;;;;3.13;1.67;;;4.10;92.40;;;;;;5032757;28;20128;-51
2022/12/06 08:32:05;;;;;;;4.70;1.60;;;4.20;92.40;;;;;;5044873;28;20029;-51
2022/12/06 08:34:33;;;;;;;2.08;1.15;;;4.20;92.40;;;;;;5051370;28;20090;-57
2022/12/06 08:36:59;;;;;;;2.63;1.55;;;4.20;92.50;;;;;;5051792;28;20466;-53
2022/12/06 08:39:27;;;;;;;2.30;1.35;;;4.30;92.50;;;;;;5056717;28;20032;-57
2022/12/06 08:41:54;;;;;;;2.75;1.45;;;4.30;92.50;;;;;;5044851;28;20112;-53
2022/12/06 08:44:20;;;;;;;2.65;1.30;;;4.40;92.50;;;;;;5036617;28;20760;-57
2022/12/06 08:46:49;;;;;;;2.53;1.48;;;4.40;92.60;;;;;;5040798;28;20040;-60
2022/12/06 08:49:17;;;;;;;5.15;1.27;;;4.40;92.60;;;;;;5044496;28;20029;-58
2022/12/06 08:51:44;;;;;;;4.60;1.52;;;4.40;92.60;;;;;;5036314;28;20422;-58
2022/12/06 08:54:14;;;;;;;3.20;1.67;;;4.50;92.70;;;;;;5036463;28;20108;-57
2022/12/06 08:56:43;;;;;;;3.35;1.90;;;4.60;92.70;;;;;;5037466;28;20041;-58
2022/12/06 08:59:10;;;;;;;3.08;1.70;;;4.60;92.70;;;;;;5047502;28;20033;-59
2022/12/06 09:01:37;;;;;;;3.65;2.20;;;4.60;92.70;;;;;;5055962;28;20028;-60
2022/12/06 09:04:09;;;;;;;4.53;2.05;;;4.60;92.70;;;;;;5054163;28;20052;-59
2022/12/06 09:06:39;;;;;;;5.20;2.60;;;4.60;92.70;;;;;;5037942;28;20027;-59
2022/12/06 09:09:08;;;;;;;4.55;3.10;;;4.60;92.80;;;;;;5036146;28;20361;-58
2022/12/06 09:11:35;;;;;;;4.57;2.73;;;4.60;92.90;;;;;;5036290;28;20026;-60
2022/12/06 09:14:03;;;;;;;4.35;2.63;;;4.60;92.90;;;;;;5051944;28;20358;-58
2022/12/06 09:16:33;;;;;;;4.68;3.40;;;4.70;93.00;;;;;;5039313;28;20037;-57
2022/12/06 09:19:00;;;;;;;4.53;2.72;;;4.70;92.90;;;;;;5036134;28;20394;-54
2022/12/06 09:21:29;;;;;;;3.92;1.75;;;4.70;93.00;;;;;;5035794;28;20096;-55
2022/12/06 09:23:57;;;;;;;3.22;1.83;;;4.70;92.90;;;;;;5050981;28;20393;-55
2022/12/06 09:26:27;;;;;;;3.10;1.83;;;4.80;92.90;;;;;;5055069;28;20020;-56
2022/12/06 09:28:55;;;;;;;4.93;1.85;;;4.80;92.90;;;;;;5034714;28;20026;-54
2022/12/06 09:31:23;;;;;;;4.05;2.00;;;4.90;92.80;;;;;;5054325;28;20029;-53
2022/12/06 09:33:51;;;;;;;4.55;2.08;;;5.00;92.90;;;;;;5055637;28;20031;-50
2022/12/06 09:36:25;;;;;;;4.18;2.25;;;5.10;92.90;;;;;;5033284;28;20080;-55
2022/12/06 09:39:19;;;;;;;3.53;1.90;;;5.10;92.90;;;;;;5034633;28;20037;-49
2022/12/06 09:42:12;;;;;;;3.60;2.30;;;5.20;92.80;;;;;;5050269;28;20033;-51
2022/12/06 09:44:41;;;;;;;4.28;2.20;;;5.20;92.50;;;;;;5052819;28;20022;-49
2022/12/06 09:47:23;;;;;;;5.05;2.33;;;5.20;92.30;;;;;;5049180;28;20033;-53
2022/12/06 09:50:33;;;;;;;3.15;2.10;;;5.20;92.30;;;;;;5035318;28;20343;-52
2022/12/06 09:53:36;;;;;;;5.18;2.30;;;5.30;92.20;;;;;;5054830;28;20091;-52
2022/12/06 09:56:30;;;;;;;4.47;2.72;;;5.30;92.10;;;;;;5054869;28;20521;-50
2022/12/06 09:59:37;;;;;;;5.72;2.10;;;5.30;92.10;;;;;;5046042;28;20039;-50
2022/12/06 10:02:34;;;;;;;3.95;1.85;;;5.30;92.10;;;;;;5051493;28;20040;-53
2022/12/06 10:05:24;;;;;;;3.13;1.50;;;5.40;92.10;;;;;;5054655;28;20029;-48
2022/12/06 10:08:02;;;;;;;9.38;2.55;;;5.60;92.10;;;;;;5050317;28;20029;-46
2022/12/06 10:10:46;;;;;;;8.63;2.08;;;5.70;91.30;;;;;;5037182;28;20036;-47
2022/12/06 10:13:39;;;;;;;6.70;1.30;;;5.60;90.40;;;;;;5051858;28;20052;-54
2022/12/06 10:16:29;;;;;;;4.15;1.45;;;5.70;90.00;;;;;;5048148;28;20025;-50
2022/12/06 10:19:28;;;;;;;1.88;0.90;;;5.70;89.30;;;;;;5047377;28;20446;-59
2022/12/06 10:22:30;;;;;;;4.03;0.88;;;5.50;88.80;;;;;;5044345;28;20037;-60
2022/12/06 10:25:51;;;;;;;2.58;1.02;;;5.30;88.10;;;;;;5037099;28;20112;-61
2022/12/06 10:28:31;;;;;;;1.95;0.90;;;5.10;88.60;;;;;;5012496;28;20048;-59
2022/12/06 10:31:07;;;;;;;2.35;1.33;;;5.10;89.10;;;;;;5054729;28;20057;-57
2022/12/06 10:33:54;;;;;;;2.08;1.15;;;5.10;89.40;;;;;;5054432;28;20470;-56
2022/12/06 10:36:57;;;;;;;3.13;1.00;;;5.00;89.50;;;;;;5043524;28;20037;-51
2022/12/06 10:39:44;;;;;;;3.55;1.00;;;5.00;89.70;;;;;;5033363;28;20485;-51
2022/12/06 10:42:37;;;;;;;2.70;1.10;;;5.00;89.80;;;;;;5034219;28;20422;-50
2022/12/06 10:48:27;;;;;;;1.73;0.88;;;5.00;89.60;;;;;;5034295;28;20040;-55
2022/12/06 10:51:02;;;;;;;5.28;2.05;;;5.10;89.80;;;;;;5046389;28;20057;-52
2022/12/06 10:53:33;;;;;;;3.42;1.88;;;5.10;89.70;;;;;;5054247;28;20028;-52
2022/12/06 10:56:27;;;;;;;3.65;1.52;;;5.10;89.60;;;;;;5033148;28;20037;-54
2022/12/06 10:59:23;;;;;;;5.50;2.10;;;5.10;89.50;;;;;;5034558;28;20370;-52
2022/12/06 11:01:51;;;;;;;3.75;2.17;;;5.20;89.40;;;;;;5036055;28;20024;-53
2022/12/06 11:04:37;;;;;;;2.20;1.40;;;5.20;89.30;;;;;;5034264;28;20044;-51
2022/12/06 11:07:20;;;;;;;4.10;1.98;;;5.30;89.20;;;;;;5036873;28;20433;-51
2022/12/06 11:09:55;;;;;;;4.85;2.80;;;5.30;88.80;;;;;;5053814;28;20025;-49
2022/12/06 11:12:33;;;;;;;3.67;2.50;;;5.40;88.60;;;;;;5036235;28;20496;-52
2022/12/06 11:15:07;;;;;;;4.40;2.70;;;5.40;88.70;;;;;;5042369;28;20040;-50
2022/12/06 11:17:41;;;;;;;4.70;1.83;;;5.40;88.50;;;;;;5026574;28;20032;-49
2022/12/06 11:20:29;;;;;;;2.97;1.30;;;5.40;87.90;;;;;;5034520;28;20129;-48
2022/12/06 11:23:31;;;;;;;3.17;1.40;;;5.40;87.50;;;;;;5053513;28;20103;-52
2022/12/06 11:26:26;;;;;;;3.40;1.83;;;5.40;87.80;;;;;;5050652;28;20044;-51
2022/12/06 11:29:05;;;;;;;4.32;1.30;;;5.40;87.70;;;;;;5033685;28;20095;-47
2022/12/06 11:31:53;;;;;;;6.13;3.70;;;5.40;87.00;;;;;;5029863;28;20029;-46
2022/12/06 11:34:40;;;;;;;6.55;2.67;;;5.40;87.20;;;;;;5034365;28;20029;-50
2022/12/06 11:37:08;;;;;;;4.38;1.35;;;5.40;87.10;;;;;;5049383;28;20029;-49
2022/12/06 11:39:37;;;;;;;2.10;1.05;;;5.40;86.90;;;;;;5053196;28;20040;-47
2022/12/06 11:42:09;;;;;;;1.70;0.97;;;5.30;86.40;;;;;;5043362;28;20029;-50
2022/12/06 11:44:47;;;;;;;2.55;0.75;;;5.20;86.50;;;;;;5050496;28;20287;-50
2022/12/06 11:47:21;;;;;;;2.28;1.25;;;5.20;87.10;;;;;;5041426;28;20044;-49
2022/12/06 11:49:50;;;;;;;2.20;1.13;;;5.10;87.10;;;;;;5043488;28;20081;-48
2022/12/06 11:52:37;;;;;;;2.38;0.98;;;5.10;87.10;;;;;;5053168;28;20021;-48
2022/12/06 11:55:14;;;;;;;2.15;0.95;;;5.10;87.10;;;;;;5048925;28;20025;-52
2022/12/06 11:58:25;;;;;;;3.03;0.88;;;5.00;87.30;;;;;;5047793;28;20068;-50
2022/12/06 12:01:02;;;;;;;7.07;1.20;;;5.00;87.20;;;;;;5015369;28;20455;-51
2022/12/06 12:03:37;;;;;;;3.60;1.13;;;4.90;87.00;;;;;;5051378;28;20116;-48
2022/12/06 12:06:20;;;;;;;1.95;0.90;;;4.90;86.70;;;;;;5040854;28;20133;-49
2022/12/06 12:09:02;;;;;;;2.03;1.27;;;4.80;86.60;;;;;;5032356;28;20021;-49
2022/12/06 12:11:36;;;;;;;4.13;1.35;;;4.70;86.30;;;;;;5027307;28;20029;-49
2022/12/06 12:14:15;;;;;;;12.63;2.10;;;4.60;86.20;;;;;;5051833;28;20071;-52
2022/12/06 12:16:47;;;;;;;8.10;1.50;;;4.60;86.10;;;;;;5034369;28;20028;-48
2022/12/06 12:19:36;;;;;;;4.10;1.35;;;4.60;86.10;;;;;;5033174;28;20135;-48
2022/12/06 12:22:35;;;;;;;3.88;1.20;;;4.60;86.30;;;;;;5052564;28;20059;-46
2022/12/06 12:25:25;;;;;;;2.03;0.80;;;4.70;86.60;;;;;;5035223;28;20029;-48
2022/12/06 12:27:56;;;;;;;5.25;1.23;;;4.60;86.20;;;;;;5035637;28;20037;-49
2022/12/06 12:30:25;;;;;;;5.28;1.40;;;4.60;86.30;;;;;;5033089;28;20048;-48
2022/12/06 12:33:16;;;;;;;2.38;1.30;;;4.60;86.20;;;;;;5048271;28;20032;-48
2022/12/06 12:35:46;;;;;;;1.90;1.20;;;4.60;86.10;;;;;;5050392;28;20032;-48
2022/12/06 12:38:39;;;;;;;1.75;0.73;;;4.60;85.90;;;;;;5035060;28;20029;-50
2022/12/06 12:41:29;;;;;;;3.30;0.85;;;4.50;86.00;;;;;;5032884;28;20156;-48
2022/12/06 12:44:19;;;;;;;2.90;1.10;;;4.60;85.50;;;;;;5032710;28;20090;-52
2022/12/06 12:46:54;;;;;;;1.92;1.08;;;4.60;85.60;;;;;;5015405;28;20032;-48
2022/12/06 12:49:23;;;;;;;2.70;1.05;;;4.50;85.60;;;;;;5044613;28;20032;-48
2022/12/06 12:51:52;;;;;;;1.83;0.98;;;4.50;85.60;;;;;;5052222;28;21880;-47
2022/12/06 12:54:37;;;;;;;1.27;0.70;;;4.40;85.70;;;;;;5052792;28;20033;-45
2022/12/06 12:57:12;;;;;;;2.03;0.88;;;4.40;85.90;;;;;;5052530;28;20041;-51
2022/12/06 12:59:40;;;;;;;1.40;0.93;;;4.40;85.90;;;;;;5034157;28;20041;-47
2022/12/06 13:02:29;;;;;;;1.85;1.00;;;4.40;85.60;;;;;;5052314;28;20036;-49
2022/12/06 13:05:05;;;;;;;1.20;0.73;;;4.40;86.00;;;;;;5036039;28;20185;-49
2022/12/06 13:07:37;;;;;;;2.28;1.15;;;4.40;85.90;;;;;;5031859;28;20366;-52
2022/12/06 13:10:18;;;;;;;2.03;1.00;;;4.30;85.80;;;;;;5051252;28;20111;-48
2022/12/06 13:13:00;;;;;;;2.50;1.10;;;4.30;86.00;;;;;;5036199;28;20399;-48
2022/12/06 13:15:46;;;;;;;2.00;0.90;;;4.20;86.10;;;;;;5031577;28;20026;-52
2022/12/06 13:18:39;;;;;;;1.48;0.90;;;4.30;86.10;;;;;;5032923;28;20022;-47
2022/12/06 13:21:36;;;;;;;2.55;0.98;;;4.20;86.40;;;;;;5027594;28;20040;-48
2022/12/06 13:24:28;;;;;;;2.35;1.00;;;4.20;86.50;;;;;;5034763;28;20135;-46
2022/12/06 13:27:11;;;;;;;2.50;1.35;;;4.20;86.40;;;;;;5053323;28;20021;-45
2022/12/06 13:29:58;;;;;;;2.33;1.15;;;4.20;86.70;;;;;;5038377;28;20048;-48
2022/12/06 13:32:37;;;;;;;3.25;1.90;;;4.20;87.00;;;;;;5036169;28;20086;-50
2022/12/06 13:35:18;;;;;;;3.20;1.88;;;4.20;87.10;;;;;;5038253;28;20033;-49
2022/12/06 13:38:00;;;;;;;3.58;2.15;;;4.10;87.00;;;;;;5055474;28;20308;-46
2022/12/06 13:40:42;;;;;;;3.28;1.70;;;4.10;87.20;;;;;;5049409;28;20332;-48
2022/12/06 13:43:26;;;;;;;2.97;1.63;;;4.10;87.30;;;;;;5037629;28;20037;-45
2022/12/06 13:46:21;;;;;;;2.70;1.65;;;4.00;87.50;;;;;;5055626;28;20033;-45
2022/12/06 13:48:53;;;;;;;3.40;1.77;;;4.00;87.50;;;;;;5046432;28;20025;-47
2022/12/06 13:51:40;;;;;;;4.13;1.73;;;4.00;87.80;;;;;;5055573;28;20054;-50
2022/12/06 13:54:18;;;;;;;4.47;1.98;;;4.00;87.90;;;;;;5037370;28;20043;-46
2022/12/06 13:56:47;;;;;;;4.72;2.53;;;3.90;88.00;;;;;;5027305;28;20041;-48
2022/12/06 13:59:15;;;;;;;4.43;2.87;;;3.90;88.00;;;;;;5035191;28;20021;-50